Time;durP1;ratioP1;P1;durP2;ratioP2;P2;SDS_P1;SDS_P2;PMS_P1;PMS_P2;Temp;Humidity;BMP_temperature;BMP_pressure;BME280_temperature;BME280_humidity;BME280_pressure;Samples;Min_cycle;Max_cycle;Signal;HPM_P1;HPM_P2
2022/11/01 00:01:39;;;;;;;0.10;0.10;;;;;;;11.69;100.00;96326.56;4954174;28;20065;-77
2022/11/01 00:04:25;;;;;;;0.10;0.10;;;;;;;11.68;100.00;96332.19;4934649;28;20050;-75
2022/11/01 00:07:11;;;;;;;0.10;0.10;;;;;;;11.68;100.00;96327.63;4954662;28;20057;-77
2022/11/01 00:09:57;;;;;;;0.10;0.10;;;;;;;11.69;100.00;96323.88;4950508;28;20047;-77
2022/11/01 00:12:44;;;;;;;0.17;0.17;;;;;;;11.75;100.00;96319.34;4954691;28;20053;-77
2022/11/01 00:15:30;;;;;;;0.10;0.10;;;;;;;11.78;100.00;96323.38;4956504;28;20070;-77
2022/11/01 00:18:16;;;;;;;0.10;0.10;;;;;;;11.79;100.00;96322.31;4951681;28;20522;-77
2022/11/01 00:21:01;;;;;;;0.30;0.20;;;;;;;11.80;100.00;96329.28;4954418;28;20077;-76
2022/11/01 00:23:47;;;;;;;0.10;0.10;;;;;;;11.78;100.00;96323.38;4951065;28;20046;-77
2022/11/01 00:26:33;;;;;;;0.15;0.10;;;;;;;11.79;100.00;96328.47;4953901;28;20415;-76
2022/11/01 00:29:19;;;;;;;0.30;0.20;;;;;;;11.76;100.00;96334.38;4953172;28;20082;-76
2022/11/01 00:32:05;;;;;;;0.10;0.10;;;;;;;11.81;100.00;96330.94;4951796;28;20540;-77
2022/11/01 00:34:51;;;;;;;0.10;0.10;;;;;;;11.85;100.00;96326.69;4953676;28;20047;-77
2022/11/01 00:37:37;;;;;;;0.20;0.20;;;;;;;11.87;100.00;96322.66;4955538;28;20654;-76
2022/11/01 00:40:23;;;;;;;0.13;0.13;;;;;;;11.83;100.00;96321.56;4944693;28;20210;-75
2022/11/01 00:43:10;;;;;;;0.10;0.10;;;;;;;11.85;100.00;96313.28;4954342;28;20042;-76
2022/11/01 00:45:56;;;;;;;0.08;0.08;;;;;;;11.87;100.00;96313.81;4955651;28;20047;-77
2022/11/01 00:48:42;;;;;;;0.10;0.10;;;;;;;11.82;100.00;96300.38;4953224;28;20047;-77
2022/11/01 00:51:28;;;;;;;0.10;0.10;;;;;;;11.83;100.00;96312.69;4958316;28;20428;-78
2022/11/01 00:54:14;;;;;;;0.10;0.10;;;;;;;11.87;100.00;96306.56;4958531;28;20043;-78
2022/11/01 00:56:59;;;;;;;0.10;0.10;;;;;;;11.85;100.00;96289.13;4956887;28;20043;-77
2022/11/01 00:59:45;;;;;;;0.10;0.10;;;;;;;11.85;100.00;96286.47;4958764;28;20419;-78
2022/11/01 01:02:31;;;;;;;0.15;0.10;;;;;;;11.78;100.00;96272.44;4949960;28;20053;-77
2022/11/01 01:05:19;;;;;;;0.10;0.10;;;;;;;11.71;100.00;96276.16;4960276;28;20478;-76
2022/11/01 01:08:05;;;;;;;0.20;0.20;;;;;;;11.70;100.00;96287.16;4957552;28;20047;-76
2022/11/01 01:10:52;;;;;;;0.10;0.10;;;;;;;11.64;100.00;96272.09;4944384;28;20046;-77
2022/11/01 01:13:38;;;;;;;0.10;0.10;;;;;;;11.62;100.00;96267.00;4955405;28;20066;-77
2022/11/01 01:16:24;;;;;;;0.10;0.10;;;;;;;11.62;100.00;96258.16;4961086;28;20093;-77
2022/11/01 01:19:10;;;;;;;0.10;0.10;;;;;;;11.52;100.00;96248.19;4958177;28;21034;-76
2022/11/01 01:21:56;;;;;;;0.10;0.10;;;;;;;11.53;100.00;96239.09;4944700;28;20046;-77
2022/11/01 01:24:44;;;;;;;0.20;0.10;;;;;;;11.55;100.00;96247.66;4957137;28;20515;-78
2022/11/01 01:27:30;;;;;;;0.10;0.10;;;;;;;11.52;100.00;96240.16;4956611;28;20065;-78
2022/11/01 01:30:16;;;;;;;0.10;0.10;;;;;;;11.50;100.00;96220.81;4961715;28;20109;-76
2022/11/01 01:33:02;;;;;;;0.10;0.10;;;;;;;11.50;100.00;96222.69;4957134;28;20046;-76
2022/11/01 01:35:48;;;;;;;0.10;0.10;;;;;;;11.51;100.00;96221.63;4957612;28;20530;-77
2022/11/01 01:38:35;;;;;;;0.10;0.10;;;;;;;11.45;100.00;96218.16;4943446;28;20043;-77
2022/11/01 01:44:50;;;;;;;0.10;0.10;;;;;;;11.38;100.00;96221.03;4955593;28;20094;-76
2022/11/01 01:47:39;;;;;;;0.10;0.10;;;;;;;11.36;100.00;96228.53;4954220;28;20487;-77
2022/11/01 01:50:36;;;;;;;0.10;0.10;;;;;;;11.38;100.00;96230.97;4953933;28;20043;-77
2022/11/01 01:53:29;;;;;;;0.10;0.10;;;;;;;11.37;100.00;96235.50;4956397;28;20121;-78
2022/11/01 01:56:23;;;;;;;0.10;0.10;;;;;;;11.34;100.00;96241.38;4959247;28;20483;-77
2022/11/01 01:59:09;;;;;;;0.20;0.10;;;;;;;11.36;100.00;96254.50;4951812;28;20273;-76
2022/11/01 02:01:57;;;;;;;0.20;0.20;;;;;;;11.39;100.00;96254.00;4957016;28;20034;-78
2022/11/01 02:05:06;;;;;;;0.10;0.10;;;;;;;11.38;100.00;96258.56;4957113;28;20076;-76
2022/11/01 02:07:53;;;;;;;0.20;0.20;;;;;;;11.40;100.00;96251.06;4957321;28;20425;-77
2022/11/01 02:10:39;;;;;;;0.17;0.10;;;;;;;11.38;100.00;96247.03;4928383;28;20040;-78
2022/11/01 02:13:24;;;;;;;0.28;0.20;;;;;;;11.35;100.00;96258.25;4957987;28;20530;-76
2022/11/01 02:16:13;;;;;;;0.30;0.10;;;;;;;11.32;100.00;96261.44;4958369;28;20372;-76
2022/11/01 02:19:18;;;;;;;0.10;0.10;;;;;;;11.28;100.00;96250.44;4955187;28;20554;-76
2022/11/01 02:22:10;;;;;;;0.10;0.10;;;;;;;11.32;100.00;96251.53;4949097;28;20355;-77
2022/11/01 02:25:09;;;;;;;0.10;0.10;;;;;;;11.25;100.00;96234.88;4954119;28;20056;-78
2022/11/01 02:28:21;;;;;;;0.20;0.10;;;;;;;11.19;100.00;96238.59;4951798;28;20089;-78
2022/11/01 02:31:31;;;;;;;0.10;0.10;;;;;;;11.13;100.00;96243.13;4955785;28;20058;-76
2022/11/01 02:34:32;;;;;;;0.10;0.10;;;;;;;11.14;100.00;96247.41;4938388;28;20066;-76
2022/11/01 02:37:28;;;;;;;0.10;0.10;;;;;;;11.24;100.00;96246.66;4957776;28;20069;-76
2022/11/01 02:40:24;;;;;;;0.10;0.10;;;;;;;11.31;100.00;96241.91;4959157;28;20043;-78
2022/11/01 02:43:54;;;;;;;0.10;0.10;;;;;;;11.37;100.00;96248.09;4958065;28;20039;-77
2022/11/01 02:47:00;;;;;;;0.10;0.10;;;;;;;11.35;100.00;96242.16;4928011;28;20073;-78
2022/11/01 02:49:52;;;;;;;0.10;0.10;;;;;;;11.31;100.00;96247.25;4949990;28;20057;-76
2022/11/01 02:52:40;;;;;;;0.10;0.10;;;;;;;11.31;100.00;96246.44;4954790;28;20074;-79
2022/11/01 02:55:29;;;;;;;0.10;0.10;;;;;;;11.39;100.00;96248.63;4956894;28;20046;-76
2022/11/01 02:58:21;;;;;;;0.10;0.10;;;;;;;11.50;100.00;96252.19;4951031;28;20373;-78
2022/11/01 03:01:14;;;;;;;0.20;0.20;;;;;;;11.56;100.00;96256.50;4954350;28;20043;-77
2022/11/01 03:04:01;;;;;;;0.15;0.15;;;;;;;11.55;100.00;96258.38;4954123;28;20471;-76
2022/11/01 03:06:57;;;;;;;0.10;0.10;;;;;;;11.63;100.00;96251.72;4944056;28;20113;-76
2022/11/01 03:09:43;;;;;;;0.10;0.10;;;;;;;11.66;100.00;96261.91;4957151;28;20047;-77
2022/11/01 03:12:39;;;;;;;0.10;0.10;;;;;;;11.61;100.00;96256.56;4955971;28;20504;-77
2022/11/01 03:15:29;;;;;;;0.10;0.10;;;;;;;11.65;100.00;96254.94;4958523;28;20042;-77
2022/11/01 03:18:31;;;;;;;0.10;0.10;;;;;;;11.67;100.00;96252.81;4954217;28;20400;-76
2022/11/01 03:21:22;;;;;;;0.10;0.10;;;;;;;11.71;100.00;96257.41;4956650;28;20090;-77
2022/11/01 03:24:14;;;;;;;0.20;0.15;;;;;;;11.75;100.00;96268.44;4955931;28;20623;-77
2022/11/01 03:27:10;;;;;;;0.10;0.10;;;;;;;11.73;100.00;96267.84;4955549;28;20105;-76
2022/11/01 03:30:09;;;;;;;0.10;0.10;;;;;;;11.73;100.00;96279.38;4955349;28;20680;-77
2022/11/01 03:32:56;;;;;;;0.10;0.10;;;;;;;11.81;100.00;96283.47;4953554;28;20050;-78
2022/11/01 03:35:47;;;;;;;0.10;0.10;;;;;;;11.83;100.00;96272.50;4954139;28;20035;-79
2022/11/01 03:38:37;;;;;;;0.20;0.20;;;;;;;11.83;100.00;96278.69;4957845;28;20732;-78
2022/11/01 03:41:25;;;;;;;0.20;0.20;;;;;;;11.83;100.00;96277.84;4941900;28;20621;-76
2022/11/01 03:44:12;;;;;;;0.20;0.20;;;;;;;11.90;100.00;96281.91;4954758;28;20045;-77
2022/11/01 03:46:58;;;;;;;0.10;0.10;;;;;;;11.92;100.00;96285.16;4944049;28;20228;-77
2022/11/01 03:49:44;;;;;;;0.30;0.20;;;;;;;11.95;100.00;96295.34;4960395;28;20054;-78
2022/11/01 03:52:32;;;;;;;0.10;0.10;;;;;;;11.98;100.00;96305.56;4956868;28;20487;-77
2022/11/01 03:55:20;;;;;;;0.10;0.10;;;;;;;11.95;100.00;96300.72;4956449;28;20125;-78
2022/11/01 03:58:06;;;;;;;0.10;0.10;;;;;;;11.99;100.00;96315.22;4955545;28;20039;-78
2022/11/01 04:00:54;;;;;;;0.17;0.17;;;;;;;11.95;100.00;96308.75;4937762;28;20038;-76
2022/11/01 04:03:41;;;;;;;0.10;0.10;;;;;;;11.94;100.00;96309.03;4957694;28;20506;-77
2022/11/01 04:06:27;;;;;;;0.10;0.10;;;;;;;12.02;100.00;96310.41;4956065;28;20034;-77
2022/11/01 04:09:13;;;;;;;0.10;0.10;;;;;;;11.94;100.00;96317.06;4958685;28;20550;-78
2022/11/01 04:11:59;;;;;;;0.22;0.13;;;;;;;12.03;100.00;96312.81;4954826;28;20039;-77
2022/11/01 04:21:22;;;;;;;0.10;0.10;;;;;;;12.08;100.00;96331.63;4953820;28;20260;-75
2022/11/01 04:24:09;;;;;;;0.10;0.10;;;;;;;12.06;100.00;96328.41;4955033;28;20324;-76
2022/11/01 04:26:55;;;;;;;0.10;0.10;;;;;;;12.12;100.00;96330.03;4954085;28;20083;-76
2022/11/01 04:29:40;;;;;;;0.10;0.10;;;;;;;12.14;100.00;96325.22;4954958;28;20063;-76
2022/11/01 04:32:26;;;;;;;0.10;0.10;;;;;;;12.10;100.00;96318.75;4956753;28;20669;-74
2022/11/01 04:35:12;;;;;;;0.10;0.10;;;;;;;12.14;100.00;96319.88;4953868;28;20459;-75
2022/11/01 04:37:58;;;;;;;0.10;0.10;;;;;;;12.16;100.00;96327.66;4951429;28;20042;-76
2022/11/01 04:40:44;;;;;;;0.20;0.20;;;;;;;12.11;100.00;96332.97;4938264;28;20071;-76
2022/11/01 04:43:30;;;;;;;0.10;0.10;;;;;;;12.14;100.00;96325.22;4952184;28;20260;-76
2022/11/01 04:46:16;;;;;;;0.10;0.10;;;;;;;12.09;100.00;96343.97;4954521;28;20460;-75
2022/11/01 04:49:01;;;;;;;0.17;0.17;;;;;;;12.18;100.00;96333.53;4954012;28;20577;-74
2022/11/01 04:51:47;;;;;;;0.28;0.20;;;;;;;12.11;100.00;96330.28;4957834;28;20121;-77
2022/11/01 04:54:33;;;;;;;0.10;0.10;;;;;;;12.06;100.00;96338.31;4960668;28;20047;-78
2022/11/01 04:57:21;;;;;;;0.10;0.10;;;;;;;12.07;100.00;96331.91;4955940;28;20611;-77
2022/11/01 05:00:11;;;;;;;0.10;0.10;;;;;;;12.15;100.00;96334.88;4958713;28;20090;-76
2022/11/01 05:03:06;;;;;;;0.17;0.17;;;;;;;12.21;100.00;96343.75;4956260;28;20256;-76
2022/11/01 05:05:51;;;;;;;0.10;0.10;;;;;;;12.33;100.00;96322.88;4940324;28;20046;-75
2022/11/01 05:08:37;;;;;;;0.13;0.10;;;;;;;12.38;100.00;96330.97;4951016;28;20054;-76
2022/11/01 05:11:24;;;;;;;0.10;0.10;;;;;;;12.40;100.00;96342.22;4954517;28;20067;-75
2022/11/01 05:14:10;;;;;;;0.10;0.10;;;;;;;12.42;100.00;96340.09;4953134;28;20038;-75
2022/11/01 05:16:56;;;;;;;0.15;0.10;;;;;;;12.45;100.00;96344.94;4960513;28;20229;-75
2022/11/01 05:19:42;;;;;;;0.10;0.10;;;;;;;12.46;100.00;96349.25;4955452;28;20303;-74
2022/11/01 05:22:28;;;;;;;0.10;0.10;;;;;;;12.51;100.00;96357.28;4952822;28;20071;-75
2022/11/01 05:25:14;;;;;;;0.10;0.10;;;;;;;12.54;100.00;96362.16;4953423;28;20402;-75
2022/11/01 05:28:05;;;;;;;0.10;0.10;;;;;;;12.46;100.00;96359.97;4953539;28;21113;-76
2022/11/01 05:30:51;;;;;;;0.10;0.10;;;;;;;12.53;100.00;96355.16;4952646;28;20039;-74
2022/11/01 05:33:37;;;;;;;0.20;0.20;;;;;;;12.61;100.00;96361.91;4941046;28;20514;-75
2022/11/01 05:36:23;;;;;;;0.20;0.10;;;;;;;12.70;100.00;96371.06;4955736;28;20121;-75
2022/11/01 05:39:09;;;;;;;0.10;0.10;;;;;;;12.70;100.00;96371.06;4953602;28;20154;-75
2022/11/01 05:41:54;;;;;;;0.10;0.10;;;;;;;12.80;100.00;96379.13;4954464;28;20123;-76
2022/11/01 05:44:40;;;;;;;0.10;0.10;;;;;;;12.83;100.00;96380.47;4956452;28;20121;-75
2022/11/01 05:47:26;;;;;;;0.10;0.10;;;;;;;12.86;100.00;96376.47;4955764;28;20050;-76
2022/11/01 05:50:14;;;;;;;0.20;0.20;;;;;;;12.85;100.00;96377.56;4953919;28;20787;-76
2022/11/01 05:53:07;;;;;;;0.10;0.10;;;;;;;12.85;100.00;96370.31;4956193;28;20733;-77
2022/11/01 05:55:56;;;;;;;0.10;0.10;;;;;;;12.82;100.00;96371.63;4954485;28;20094;-76
2022/11/01 05:58:42;;;;;;;0.10;0.10;;;;;;;12.85;100.00;96370.31;4955085;28;20047;-75
2022/11/01 06:01:27;;;;;;;0.10;0.10;;;;;;;12.89;100.00;96371.38;4953260;28;20313;-75
2022/11/01 06:04:13;;;;;;;0.10;0.10;;;;;;;12.94;100.00;96384.81;4950479;28;20042;-76
2022/11/01 06:06:59;;;;;;;0.10;0.10;;;;;;;12.97;100.00;96389.66;4954449;28;20070;-76
2022/11/01 06:09:45;;;;;;;0.10;0.10;;;;;;;12.96;100.00;96389.91;4954180;28;20537;-76
2022/11/01 06:12:31;;;;;;;0.10;0.10;;;;;;;12.97;100.00;96396.91;4955010;28;20078;-76
2022/11/01 06:15:17;;;;;;;0.10;0.10;;;;;;;12.90;100.00;96394.47;4952171;28;20046;-76
2022/11/01 06:18:03;;;;;;;0.10;0.10;;;;;;;12.94;100.00;96392.88;4951709;28;20042;-75
2022/11/01 06:20:49;;;;;;;0.10;0.10;;;;;;;12.87;100.00;96397.69;4954988;28;20046;-76
2022/11/01 06:23:35;;;;;;;0.10;0.10;;;;;;;12.85;100.00;96390.97;4956255;28;20434;-76
2022/11/01 06:26:21;;;;;;;0.10;0.10;;;;;;;12.81;100.00;96399.53;4940717;28;20117;-76
2022/11/01 06:29:06;;;;;;;0.10;0.10;;;;;;;12.87;100.00;96404.94;4952249;28;20460;-76
2022/11/01 06:31:52;;;;;;;0.20;0.20;;;;;;;12.85;100.00;96410.59;4952138;28;20376;-76
2022/11/01 06:34:38;;;;;;;0.10;0.10;;;;;;;12.86;100.00;96406.81;4955012;28;20495;-76
2022/11/01 06:37:24;;;;;;;0.10;0.10;;;;;;;12.84;100.00;96427.75;4952902;28;20078;-76
2022/11/01 06:40:11;;;;;;;0.13;0.13;;;;;;;12.86;100.00;96430.19;4953725;28;20541;-76
2022/11/01 06:43:02;;;;;;;0.10;0.10;;;;;;;12.75;100.00;96440.06;4953201;28;20319;-76
2022/11/01 06:45:48;;;;;;;0.10;0.10;;;;;;;12.75;100.00;96435.50;4955527;28;20039;-76
2022/11/01 06:48:34;;;;;;;0.10;0.10;;;;;;;12.77;100.00;96435.25;4954398;28;20584;-75
2022/11/01 06:51:20;;;;;;;0.20;0.17;;;;;;;12.75;100.00;96456.97;4939644;28;20077;-76
2022/11/01 06:54:06;;;;;;;0.10;0.10;;;;;;;12.82;100.00;96456.75;4952350;28;20369;-76
2022/11/01 06:56:55;;;;;;;0.10;0.10;;;;;;;12.91;100.00;96460.53;4955106;28;20057;-76
2022/11/01 06:59:40;;;;;;;0.10;0.10;;;;;;;13.00;100.00;96456.28;4953620;28;20046;-74
2022/11/01 07:02:26;;;;;;;0.10;0.10;;;;;;;12.98;100.00;96468.34;4946604;28;20434;-77
2022/11/01 07:05:12;;;;;;;0.10;0.10;;;;;;;13.01;100.00;96463.28;4947179;28;20074;-76
2022/11/01 07:07:59;;;;;;;0.10;0.10;;;;;;;12.97;100.00;96489.03;4949838;28;20072;-76
2022/11/01 07:10:48;;;;;;;0.10;0.10;;;;;;;13.00;100.00;96491.22;4935335;28;20431;-75
2022/11/01 07:13:36;;;;;;;0.10;0.10;;;;;;;12.95;100.00;96488.50;4953882;28;20427;-74
2022/11/01 07:16:22;;;;;;;0.20;0.10;;;;;;;13.01;100.00;96500.06;4951746;28;20468;-75
2022/11/01 07:19:08;;;;;;;0.10;0.10;;;;;;;13.01;100.00;96500.06;4953381;28;20042;-76
2022/11/01 07:21:57;;;;;;;0.10;0.10;;;;;;;12.98;100.00;96501.38;4943083;28;20405;-75
2022/11/01 07:24:43;;;;;;;0.10;0.10;;;;;;;12.93;100.00;96506.75;4954406;28;20510;-75
2022/11/01 07:27:28;;;;;;;0.10;0.10;;;;;;;12.89;100.00;96513.69;4953591;28;20509;-74
2022/11/01 07:30:14;;;;;;;0.10;0.10;;;;;;;12.89;100.00;96497.59;4951719;28;20407;-75
2022/11/01 07:33:03;;;;;;;0.10;0.10;;;;;;;12.90;100.00;96509.94;4941592;28;20049;-76
2022/11/01 07:35:49;;;;;;;0.10;0.10;;;;;;;12.83;100.00;96523.59;4942282;28;20485;-74
2022/11/01 07:38:36;;;;;;;0.10;0.10;;;;;;;12.94;100.00;96526.34;4952298;28;20042;-75
2022/11/01 07:41:22;;;;;;;0.10;0.10;;;;;;;12.97;100.00;96529.31;4951335;28;20378;-74
2022/11/01 07:44:08;;;;;;;0.10;0.10;;;;;;;12.96;100.00;96538.44;4949873;28;20276;-75
2022/11/01 07:46:57;;;;;;;0.10;0.10;;;;;;;12.95;100.00;96538.72;4954474;28;20054;-75
2022/11/01 07:49:43;;;;;;;0.20;0.20;;;;;;;12.94;100.00;96543.28;4957843;28;20042;-77
2022/11/01 07:52:29;;;;;;;0.10;0.10;;;;;;;13.01;100.00;96551.91;4951558;28;20080;-76
2022/11/01 07:55:14;;;;;;;0.10;0.10;;;;;;;13.04;100.00;96554.06;4953275;28;20594;-76
2022/11/01 07:58:01;;;;;;;0.10;0.10;;;;;;;13.15;100.00;96554.09;4943490;28;20069;-75
2022/11/01 08:00:47;;;;;;;0.13;0.13;;;;;;;13.25;100.00;96555.00;4948361;28;20031;-75
2022/11/01 08:03:33;;;;;;;0.10;0.10;;;;;;;13.28;100.00;96548.28;4935196;28;20043;-75
2022/11/01 08:06:19;;;;;;;0.20;0.20;;;;;;;13.25;100.00;96556.88;4950632;28;20050;-76
2022/11/01 08:09:04;;;;;;;0.20;0.20;;;;;;;13.24;100.00;96550.69;4953624;28;20122;-75
2022/11/01 08:11:50;;;;;;;0.10;0.10;;;;;;;13.16;100.00;96545.00;4954080;28;20050;-75
2022/11/01 08:14:36;;;;;;;0.10;0.10;;;;;;;13.15;100.00;96549.56;4955228;28;20078;-76
2022/11/01 08:17:22;;;;;;;0.20;0.20;;;;;;;13.18;100.00;96550.91;4950569;28;20043;-77
2022/11/01 08:20:09;;;;;;;0.13;0.13;;;;;;;13.22;100.00;96560.06;4952691;28;20134;-77
2022/11/01 08:22:55;;;;;;;0.10;0.10;;;;;;;13.33;100.00;96561.75;4952642;28;20346;-76
2022/11/01 08:25:41;;;;;;;0.17;0.10;;;;;;;13.28;100.00;96565.22;4937997;28;20137;-75
2022/11/01 08:28:28;;;;;;;0.10;0.10;;;;;;;13.42;100.00;96570.09;4951793;28;20138;-76
2022/11/01 08:31:14;;;;;;;0.10;0.10;;;;;;;13.51;100.00;96574.72;4950292;28;20055;-76
2022/11/01 08:34:00;;;;;;;0.20;0.20;;;;;;;13.51;100.00;96580.09;4953201;28;20119;-75
2022/11/01 08:36:46;;;;;;;0.10;0.10;;;;;;;13.49;100.00;96576.06;4955684;28;20043;-75
2022/11/01 08:39:31;;;;;;;0.10;0.10;;;;;;;13.44;100.00;96584.91;4954968;28;20062;-75
2022/11/01 08:42:17;;;;;;;0.10;0.10;;;;;;;13.41;100.00;96590.81;4949129;28;20141;-75
2022/11/01 08:45:05;;;;;;;0.10;0.10;;;;;;;13.43;100.00;96591.34;4953475;28;20098;-77
2022/11/01 08:47:59;;;;;;;0.10;0.10;;;;;;;13.49;100.00;96611.81;4955615;28;20050;-76
2022/11/01 08:50:45;;;;;;;0.20;0.20;;;;;;;13.47;100.00;96595.13;4951714;28;20054;-77
2022/11/01 08:53:31;;;;;;;0.10;0.10;;;;;;;13.50;100.00;96599.97;4949768;28;20150;-76
2022/11/01 08:56:19;;;;;;;0.20;0.20;;;;;;;13.48;100.00;96596.75;4955490;28;20452;-76
2022/11/01 08:59:05;;;;;;;0.10;0.10;;;;;;;13.56;100.00;96604.31;4953552;28;20470;-76
2022/11/01 09:01:51;;;;;;;0.10;0.10;;;;;;;13.54;100.00;96602.94;4958314;28;20408;-76
2022/11/01 09:04:37;;;;;;;0.10;0.10;;;;;;;13.51;100.00;96609.66;4956260;28;20047;-77
2022/11/01 09:07:22;;;;;;;0.10;0.10;;;;;;;13.47;100.00;96611.25;4955615;28;20043;-76
2022/11/01 09:10:09;;;;;;;0.10;0.10;;;;;;;13.26;100.00;96629.16;4956486;28;20054;-78
2022/11/01 09:12:56;;;;;;;0.17;0.17;;;;;;;13.35;100.00;96626.78;4959504;28;20038;-76
2022/11/01 09:15:42;;;;;;;0.20;0.20;;;;;;;13.37;100.00;96621.94;4942208;28;20050;-76
2022/11/01 09:18:28;;;;;;;0.10;0.10;;;;;;;13.44;100.00;96611.78;4953211;28;20050;-76
2022/11/01 09:21:14;;;;;;;0.10;0.10;;;;;;;13.54;100.00;96616.38;4952664;28;20584;-76
2022/11/01 09:24:00;;;;;;;0.15;0.15;;;;;;;13.70;100.00;96625.34;4955386;28;20275;-76
2022/11/01 09:26:46;;;;;;;0.20;0.20;;;;;;;14.34;100.00;96623.03;4954157;28;20058;-77
2022/11/01 09:29:32;;;;;;;0.20;0.20;;;;;;;16.10;100.00;96626.66;4941591;28;20145;-76
2022/11/01 09:32:19;;;;;;;0.20;0.20;;;;;;;17.48;100.00;96615.47;4953116;28;20048;-76
2022/11/01 09:35:05;;;;;;;0.30;0.30;;;;;;;18.25;92.17;96613.41;4954690;28;20039;-77
2022/11/01 09:37:56;;;;;;;0.20;0.20;;;;;;;19.54;81.04;96632.66;4956691;28;20070;-77
2022/11/01 09:40:46;;;;;;;0.28;0.28;;;;;;;20.29;72.89;96640.31;4959169;28;20043;-77
2022/11/01 09:43:36;;;;;;;0.20;0.20;;;;;;;20.40;70.50;96648.25;4958668;28;20114;-77
2022/11/01 09:46:26;;;;;;;0.30;0.30;;;;;;;21.85;58.12;96649.47;4954757;28;20376;-77
2022/11/01 09:49:20;;;;;;;0.20;0.20;;;;;;;21.30;55.52;96649.06;4954242;28;20044;-77
2022/11/01 09:52:06;;;;;;;0.20;0.20;;;;;;;22.79;53.75;96637.06;4947070;28;20467;-78
2022/11/01 09:54:52;;;;;;;0.20;0.20;;;;;;;22.54;49.23;96646.06;4958537;28;20074;-77
2022/11/01 09:57:48;;;;;;;0.15;0.15;;;;;;;20.71;57.15;96656.53;4960505;28;20043;-78
2022/11/01 10:00:41;;;;;;;0.28;0.28;;;;;;;23.27;46.86;96640.72;4957490;28;20474;-78
2022/11/01 10:03:42;;;;;;;0.20;0.20;;;;;;;24.40;46.66;96649.19;4957809;28;20043;-77
2022/11/01 10:06:54;;;;;;;0.20;0.20;;;;;;;25.68;39.29;96651.06;4954232;28;20039;-78
2022/11/01 10:09:49;;;;;;;0.30;0.30;;;;;;;25.73;43.20;96656.31;4944028;28;20054;-77
2022/11/01 10:12:58;;;;;;;0.10;0.10;;;;;;;27.24;36.89;96650.66;4960165;28;20062;-78
2022/11/01 10:16:18;;;;;;;0.15;0.15;;;;;;;28.04;34.19;96655.88;4961399;28;20360;-78
2022/11/01 10:19:10;;;;;;;0.10;0.10;;;;;;;28.85;33.45;96654.16;4961533;28;20256;-77
2022/11/01 10:22:01;;;;;;;0.10;0.10;;;;;;;28.35;32.72;96674.31;4955405;28;20069;-78
2022/11/01 10:24:57;;;;;;;0.10;0.10;;;;;;;26.88;31.40;96671.63;4960291;28;20121;-78
2022/11/01 10:27:59;;;;;;;0.10;0.10;;;;;;;26.97;33.06;96682.44;4960504;28;20238;-78
2022/11/01 10:31:00;;;;;;;0.10;0.10;;;;;;;26.64;31.85;96673.28;4963097;28;20041;-78
2022/11/01 10:34:09;;;;;;;0.10;0.10;;;;;;;25.61;33.03;96672.72;4956270;28;20086;-78
2022/11/01 10:37:05;;;;;;;0.10;0.10;;;;;;;26.88;33.60;96664.19;4961062;28;20101;-78
2022/11/01 10:39:55;;;;;;;0.10;0.10;;;;;;;28.92;31.40;96675.56;4961506;28;20433;-78
2022/11/01 10:42:41;;;;;;;0.20;0.20;;;;;;;28.75;28.62;96665.75;4960021;28;20393;-78
2022/11/01 10:45:27;;;;;;;0.10;0.10;;;;;;;28.98;29.87;96682.38;4958821;28;20039;-78
2022/11/01 10:48:36;;;;;;;0.10;0.10;;;;;;;27.98;28.89;96687.53;4959553;28;20386;-78
2022/11/01 10:51:25;;;;;;;0.10;0.10;;;;;;;28.56;30.00;96679.47;4959604;28;20526;-77
2022/11/01 10:54:22;;;;;;;0.10;0.10;;;;;;;29.27;27.33;96677.44;4956159;28;20057;-79
2022/11/01 10:57:15;;;;;;;0.10;0.10;;;;;;;27.10;31.14;96676.59;4959130;28;20050;-77
2022/11/01 11:00:05;;;;;;;0.10;0.10;;;;;;;30.00;29.22;96665.34;4958008;28;20063;-78
2022/11/01 11:02:55;;;;;;;0.10;0.10;;;;;;;31.39;27.50;96661.75;4947317;28;20410;-78
2022/11/01 11:05:42;;;;;;;0.10;0.10;;;;;;;29.65;28.07;96660.03;4956403;28;20122;-78
2022/11/01 11:08:27;;;;;;;0.10;0.10;;;;;;;32.00;26.25;96667.88;4953761;28;20034;-78
2022/11/01 11:11:16;;;;;;;0.10;0.10;;;;;;;29.89;27.82;96661.63;4957990;28;20074;-79
2022/11/01 11:14:05;;;;;;;0.08;0.08;;;;;;;29.36;26.70;96666.97;4959963;28;20538;-78
2022/11/01 11:16:55;;;;;;;0.10;0.10;;;;;;;29.48;27.94;96664.03;4957446;28;20063;-78
2022/11/01 11:19:44;;;;;;;;;;;;;;;30.47;26.28;96661.34;4946476;28;20039;-77
2022/11/01 11:22:36;;;;;;;0.10;0.10;;;;;;;27.91;28.14;96670.88;4943081;28;19925;-79
2022/11/01 11:25:30;;;;;;;0.10;0.10;;;;;;;26.36;30.68;96675.94;4597256;28;9999724;-77
2022/11/01 11:28:26;;;;;;;0.13;0.13;;;;;;;29.08;29.47;96667.22;4615100;28;10001045;-78
2022/11/01 11:31:31;;;;;;;0.10;0.10;;;;;;;28.39;28.32;96674.38;4956063;28;20379;-78
2022/11/01 11:34:55;;;;;;;0.20;0.20;;;;;;;27.51;29.07;96676.50;4957970;28;20073;-79
2022/11/01 11:38:02;;;;;;;0.10;0.10;;;;;;;30.20;27.46;96669.66;4958387;28;20483;-78
2022/11/01 11:40:48;;;;;;;0.10;0.10;;;;;;;29.78;26.99;96679.94;4943117;28;20444;-78
2022/11/01 11:43:35;;;;;;;0.10;0.10;;;;;;;30.94;25.40;96676.59;4956175;28;20398;-78
2022/11/01 11:46:25;;;;;;;0.20;0.20;;;;;;;31.11;23.97;96676.00;4957873;28;20039;-79
2022/11/01 11:49:25;;;;;;;0.10;0.10;;;;;;;30.62;26.12;96676.94;4955277;28;20030;-79
2022/11/01 11:52:17;;;;;;;0.10;0.10;;;;;;;30.45;25.51;96661.72;4956538;28;20792;-78
2022/11/01 11:55:03;;;;;;;0.10;0.10;;;;;;;29.99;27.27;96666.53;4956556;28;20169;-77
2022/11/01 11:57:52;;;;;;;0.10;0.10;;;;;;;26.45;29.44;96686.00;4957886;28;20078;-79
2022/11/01 12:00:43;;;;;;;0.10;0.10;;;;;;;26.83;29.75;96683.63;4957465;28;20124;-77
2022/11/01 12:03:34;;;;;;;0.10;0.10;;;;;;;28.97;27.53;96678.03;4954399;28;20051;-79
2022/11/01 12:06:23;;;;;;;0.10;0.10;;;;;;;29.62;26.84;96691.88;4957623;28;20039;-79
2022/11/01 12:09:40;;;;;;;0.10;0.10;;;;;;;29.52;26.00;96681.47;4959141;28;20745;-77
2022/11/01 12:12:28;;;;;;;0.10;0.10;;;;;;;31.71;23.60;96675.91;4956864;28;20085;-77
2022/11/01 12:15:25;;;;;;;0.10;0.10;;;;;;;30.35;25.23;96678.94;4956225;28;20499;-78
2022/11/01 12:18:18;;;;;;;0.10;0.10;;;;;;;32.26;23.67;96667.69;4955019;28;20034;-79
2022/11/01 12:21:16;;;;;;;0.30;0.30;;;;;;;32.64;24.04;96677.44;4960576;28;20156;-77
2022/11/01 12:24:25;;;;;;;0.10;0.10;;;;;;;32.22;24.32;96672.41;4956977;28;20325;-78
2022/11/01 12:27:19;;;;;;;0.10;0.10;;;;;;;33.01;22.36;96684.00;4958224;28;20447;-79
2022/11/01 12:30:11;;;;;;;0.10;0.10;;;;;;;31.98;23.43;96686.81;4957734;28;20047;-78
2022/11/01 12:33:01;;;;;;;0.10;0.10;;;;;;;31.56;22.58;96690.75;4961880;28;20150;-79
2022/11/01 12:35:47;;;;;;;0.10;0.10;;;;;;;33.23;21.23;96691.19;4960953;28;20034;-79
2022/11/01 12:38:47;;;;;;;0.20;0.20;;;;;;;33.65;20.74;96689.75;4965976;28;20189;-78
2022/11/01 12:41:41;;;;;;;0.10;0.10;;;;;;;33.35;21.55;96684.50;4962823;28;20035;-77
2022/11/01 12:44:41;;;;;;;0.10;0.10;;;;;;;30.75;23.80;96686.63;4963380;28;20583;-78
2022/11/01 12:47:35;;;;;;;0.10;0.10;;;;;;;30.98;24.71;96682.97;4962085;28;20031;-76
2022/11/01 12:50:26;;;;;;;0.10;0.10;;;;;;;27.85;26.71;96695.06;4951610;28;20613;-77
2022/11/01 12:53:17;;;;;;;0.10;0.10;;;;;;;27.12;27.12;96695.47;4963026;28;20139;-76
2022/11/01 12:56:04;;;;;;;0.10;0.10;;;;;;;26.92;27.43;96689.78;4947426;28;20042;-76
2022/11/01 12:58:52;;;;;;;0.10;0.10;;;;;;;27.08;27.89;96695.38;4960616;28;20047;-76
2022/11/01 13:02:31;;;;;;;0.10;0.10;;;;;;;28.08;25.65;96691.69;4958097;28;20506;-77
2022/11/01 13:06:01;;;;;;;0.10;0.10;;;;;;;27.95;26.42;96699.25;4958212;28;20064;-78
2022/11/01 13:09:13;;;;;;;0.10;0.10;;;;;;;28.35;24.71;96693.56;4885745;29;20076;-78
2022/11/01 13:12:39;;;;;;;0.10;0.10;;;;;;;30.09;23.43;96685.22;4885864;29;20045;-78
2022/11/01 13:16:11;;;;;;;0.10;0.10;;;;;;;27.03;25.79;96692.03;4946480;28;20034;-78
2022/11/01 13:19:10;;;;;;;0.10;0.10;;;;;;;27.95;25.81;96694.56;4964297;28;20443;-78
2022/11/01 13:22:12;;;;;;;0.10;0.10;;;;;;;28.48;24.84;96695.06;4962363;28;20051;-79
2022/11/01 13:25:12;;;;;;;0.10;0.10;;;;;;;28.49;25.18;96680.13;4959227;28;20173;-78